Terminal Aerodrome Forecast
Issued by NWS Sterling, VA

Current Version | Previous Version | Text Only | Print | Product List | Glossary On
Versions: 1 2 3 4 5 6 7 8 9 10 11 12 13 14 15 16 17 18 19 20
000
FTUS41 KLWX 272100 AAA
TAFIAD
TAF AMD
KIAD 272101Z 2721/2824 28005KT P6SM FEW200
     FM280600 33005KT P6SM SCT090
     FM280900 35005KT 5SM BR FEW025
     FM281000 34005KT P6SM FEW100=

USA.gov is the U.S. government's official web portal to all federal, state and local government web resources and services.